createdAt,value
2018-04-22T00:03:27.398Z,4.1
2018-04-22T00:20:16.020Z,4.1
2018-04-22T00:37:04.403Z,4.1
2018-04-22T00:53:52.667Z,4.1
2018-04-22T01:10:41.047Z,4.1
2018-04-22T01:27:29.383Z,4.1
2018-04-22T01:44:17.573Z,4.1
2018-04-22T02:01:05.695Z,4.1
2018-04-22T02:17:53.791Z,4.1
2018-04-22T02:34:41.907Z,4.0
2018-04-22T02:51:29.951Z,4.0
2018-04-22T03:08:18.003Z,4.0
2018-04-22T03:25:06.645Z,4.0
2018-04-22T03:41:54.619Z,4.0
2018-04-22T03:58:42.835Z,4.0
2018-04-22T04:15:30.520Z,4.0
2018-04-22T04:32:18.271Z,4.0
2018-04-22T04:49:06.198Z,3.9
2018-04-22T05:05:54.069Z,3.9
2018-04-22T05:22:41.995Z,4.0
2018-04-22T05:39:29.936Z,4.0
2018-04-22T05:56:17.734Z,4.1
2018-04-22T06:13:05.758Z,4.2
2018-04-22T06:29:54.631Z,4.4
2018-04-22T06:46:43.741Z,4.5
2018-04-22T07:03:32.294Z,4.5
2018-04-22T07:20:20.899Z,4.5
2018-04-22T07:37:10.133Z,4.6
2018-04-22T07:53:58.954Z,4.6
2018-04-22T08:10:48.112Z,4.6
2018-04-22T08:27:37.382Z,4.6
2018-04-22T08:44:27.212Z,4.6
2018-04-22T09:01:17.850Z,4.6
2018-04-22T09:18:07.124Z,4.6
2018-04-22T09:34:57.812Z,4.6
2018-04-22T09:51:48.172Z,4.6
2018-04-22T10:08:39.314Z,4.6
2018-04-22T10:25:29.619Z,4.6
2018-04-22T10:42:20.706Z,4.6
2018-04-22T10:59:12.129Z,4.6
2018-04-22T11:16:03.953Z,4.6
2018-04-22T11:32:55.504Z,4.6
2018-04-22T11:49:47.712Z,4.6
2018-04-22T12:06:39.900Z,4.6
2018-04-22T12:23:31.789Z,4.6
2018-04-22T12:40:23.900Z,4.6
2018-04-22T12:53:53.642Z,4.6
2018-04-22T13:07:24.496Z,4.6
2018-04-22T13:24:16.905Z,4.6
2018-04-22T13:41:10.954Z,4.6
2018-04-22T13:58:03.061Z,4.5
2018-04-22T14:14:55.987Z,4.5
2018-04-22T14:28:26.152Z,4.5
2018-04-22T14:38:34.493Z,4.6
2018-04-22T14:55:26.313Z,4.6
2018-04-22T15:12:18.752Z,4.6
2018-04-22T15:27:30.755Z,4.6
2018-04-22T15:44:23.326Z,4.6
2018-04-22T15:56:11.182Z,4.6
2018-04-22T16:13:03.241Z,4.6
2018-04-22T16:29:55.012Z,4.5
2018-04-22T16:46:45.836Z,4.5
2018-04-22T17:03:37.610Z,4.5
2018-04-22T17:20:28.645Z,4.5
2018-04-22T17:37:19.952Z,4.4
2018-04-22T17:54:10.426Z,4.4
2018-04-22T18:00:54.593Z,4.4
2018-04-22T18:17:45.346Z,4.4
2018-04-22T18:34:35.667Z,4.4
2018-04-22T18:51:25.776Z,4.3
2018-04-22T19:08:16.152Z,4.3
2018-04-22T19:25:07.400Z,4.3
2018-04-22T19:41:57.626Z,4.3
2018-04-22T19:58:48.069Z,4.3
2018-04-22T20:15:37.861Z,4.2
2018-04-22T20:32:28.072Z,4.2
2018-04-22T20:49:18.291Z,4.2
2018-04-22T21:06:07.490Z,4.2
2018-04-22T21:22:57.483Z,4.2
2018-04-22T21:39:47.696Z,4.2
2018-04-22T21:56:37.150Z,4.2
2018-04-22T22:13:26.797Z,4.2
2018-04-22T22:30:16.170Z,4.2
2018-04-22T22:47:06.034Z,4.2
2018-04-22T23:03:55.654Z,4.1
2018-04-22T23:20:45.719Z,4.1
2018-04-22T23:37:34.569Z,4.1
2018-04-22T23:54:24.155Z,4.1
